createdAt,value
2022-08-26T00:00:43.239Z,4.30
2022-08-26T00:03:46.405Z,4.20
2022-08-26T00:06:48.954Z,4.40
2022-08-26T00:09:54.346Z,4.35
2022-08-26T00:12:58.233Z,4.45
2022-08-26T00:16:01.368Z,4.43
2022-08-26T00:19:04.943Z,4.20
2022-08-26T00:22:08.051Z,4.32
2022-08-26T00:25:12.373Z,4.03
2022-08-26T00:28:15.289Z,4.25
2022-08-26T00:31:21.583Z,4.17
2022-08-26T00:34:24.455Z,3.80
2022-08-26T00:37:27.307Z,4.10
2022-08-26T00:40:36.932Z,3.75
2022-08-26T00:43:47.299Z,4.68
2022-08-26T00:46:56.211Z,4.43
2022-08-26T00:50:00.473Z,4.10
2022-08-26T00:53:24.035Z,4.30
2022-08-26T00:56:34.123Z,4.05
2022-08-26T00:59:38.967Z,4.85
2022-08-26T01:02:46.885Z,4.10
2022-08-26T01:05:52.780Z,4.57
2022-08-26T01:08:57.311Z,4.47
2022-08-26T01:12:02.538Z,4.00
2022-08-26T01:15:06.238Z,4.32
2022-08-26T01:18:10.213Z,4.20
2022-08-26T01:21:28.710Z,4.00
2022-08-26T01:24:32.354Z,4.22
2022-08-26T01:27:35.515Z,4.75
2022-08-26T01:30:40.534Z,4.10
2022-08-26T01:34:18.701Z,4.10
2022-08-26T01:37:32.692Z,3.95
2022-08-26T01:40:38.773Z,4.13
2022-08-26T01:43:44.366Z,3.80
2022-08-26T01:46:49.803Z,4.03
2022-08-26T01:49:55.926Z,3.80
2022-08-26T01:53:02.314Z,4.47
2022-08-26T01:56:05.763Z,4.05
2022-08-26T01:59:12.476Z,4.28
2022-08-26T02:02:17.390Z,3.92
2022-08-26T02:05:22.244Z,4.20
2022-08-26T02:08:37.353Z,4.13
2022-08-26T02:11:40.089Z,4.32
2022-08-26T02:14:50.271Z,3.92
2022-08-26T02:17:54.020Z,3.72
2022-08-26T02:20:58.775Z,4.57
2022-08-26T02:24:17.312Z,3.85
2022-08-26T02:27:24.388Z,4.35
2022-08-26T02:30:29.975Z,4.72
2022-08-26T02:33:32.789Z,4.90
2022-08-26T02:36:35.333Z,4.67
2022-08-26T02:39:42.016Z,4.90
2022-08-26T02:42:47.357Z,4.60
2022-08-26T02:45:49.876Z,4.22
2022-08-26T02:48:53.739Z,4.10
2022-08-26T02:51:57.107Z,4.60
2022-08-26T02:54:59.678Z,4.30
2022-08-26T02:58:02.527Z,4.32
2022-08-26T03:01:05.903Z,4.25
2022-08-26T03:04:12.291Z,4.18
2022-08-26T03:07:17.324Z,4.40
2022-08-26T03:10:21.869Z,4.10
2022-08-26T03:13:24.541Z,4.47
2022-08-26T03:16:32.534Z,4.43
2022-08-26T03:19:35.691Z,6.03
2022-08-26T03:22:39.313Z,4.17
2022-08-26T03:25:41.800Z,4.25
2022-08-26T03:29:03.925Z,4.53
2022-08-26T03:32:08.972Z,4.78
2022-08-26T03:35:12.804Z,4.53
2022-08-26T03:38:16.467Z,4.33
2022-08-26T03:41:19.019Z,4.57
2022-08-26T03:44:21.755Z,4.68
2022-08-26T03:47:24.251Z,4.35
2022-08-26T03:50:27.082Z,4.38
2022-08-26T03:53:30.560Z,4.10
2022-08-26T03:56:33.577Z,4.53
2022-08-26T03:59:36.791Z,4.07
2022-08-26T04:02:39.608Z,4.07
2022-08-26T04:05:43.010Z,4.22
2022-08-26T04:08:46.315Z,4.40
2022-08-26T04:11:50.682Z,4.03
2022-08-26T04:14:53.850Z,4.65
2022-08-26T04:17:57.333Z,4.45
2022-08-26T04:21:00.139Z,4.10
2022-08-26T04:24:03.600Z,4.20
2022-08-26T04:27:07.175Z,3.88
2022-08-26T04:30:11.629Z,4.65
2022-08-26T04:33:16.635Z,4.35
2022-08-26T04:36:35.007Z,4.45
2022-08-26T04:39:38.450Z,4.20
2022-08-26T04:42:43.078Z,4.03
2022-08-26T04:45:47.045Z,4.28
2022-08-26T04:48:51.989Z,4.50
2022-08-26T04:51:55.048Z,4.60
2022-08-26T04:54:58.590Z,4.17
2022-08-26T04:58:01.093Z,5.00
2022-08-26T05:01:04.912Z,4.97
2022-08-26T05:04:08.167Z,4.30
2022-08-26T05:07:11.330Z,4.22
2022-08-26T05:10:13.999Z,3.70
2022-08-26T05:13:20.477Z,4.40
2022-08-26T05:16:24.695Z,4.30
2022-08-26T05:19:29.024Z,4.00
2022-08-26T05:22:31.520Z,4.00
2022-08-26T05:25:39.032Z,3.90
2022-08-26T05:28:42.365Z,3.67
2022-08-26T05:31:45.366Z,4.03
2022-08-26T05:34:47.895Z,3.58
2022-08-26T05:37:50.487Z,4.18
2022-08-26T05:40:53.304Z,4.23
2022-08-26T05:43:56.925Z,5.05
2022-08-26T05:46:59.496Z,4.60
2022-08-26T05:50:05.818Z,3.95
2022-08-26T05:53:09.650Z,4.57
2022-08-26T05:56:13.504Z,4.03
2022-08-26T05:59:16.372Z,4.32
2022-08-26T06:02:24.062Z,4.55
2022-08-26T06:05:26.990Z,4.15
2022-08-26T06:08:31.194Z,4.55
2022-08-26T06:11:34.090Z,4.10
2022-08-26T06:14:36.959Z,3.85
2022-08-26T06:17:39.642Z,4.15
2022-08-26T06:20:57.396Z,4.50
2022-08-26T06:24:27.325Z,4.10
2022-08-26T06:27:32.636Z,3.73
2022-08-26T06:30:40.647Z,4.22
2022-08-26T06:33:43.962Z,4.18
2022-08-26T06:36:47.492Z,4.10
2022-08-26T06:39:51.357Z,4.53
2022-08-26T06:42:54.022Z,4.03
2022-08-26T06:46:04.846Z,4.40
2022-08-26T06:49:08.263Z,4.18
2022-08-26T06:52:11.358Z,3.95
2022-08-26T06:55:14.116Z,4.55
2022-08-26T06:58:17.513Z,4.13
2022-08-26T10:34:21.780Z,4.05
2022-08-26T10:37:34.810Z,3.40
2022-08-26T10:41:09.768Z,3.22
2022-08-26T10:44:18.245Z,3.33
2022-08-26T10:47:28.307Z,4.13
2022-08-26T10:50:41.995Z,3.47
2022-08-26T10:54:13.402Z,3.40
2022-08-26T10:57:53.079Z,3.45
2022-08-26T11:01:28.481Z,3.25
2022-08-26T11:04:47.109Z,3.28
2022-08-26T11:08:15.368Z,3.60
2022-08-26T11:11:45.395Z,3.67
2022-08-26T11:14:58.835Z,3.42
2022-08-26T11:18:08.067Z,3.65
2022-08-26T11:21:47.805Z,3.28
2022-08-26T11:24:53.383Z,3.63
2022-08-26T11:28:00.895Z,3.90
2022-08-26T11:31:08.793Z,4.18
2022-08-26T11:34:13.962Z,3.40
2022-08-26T11:40:29.705Z,4.03
2022-08-26T11:43:33.803Z,3.20
2022-08-26T11:46:37.749Z,3.35
2022-08-26T11:49:41.894Z,3.20
2022-08-26T11:53:06.380Z,3.25
2022-08-26T11:56:24.590Z,3.28
2022-08-26T12:02:44.250Z,3.30
2022-08-26T12:05:49.471Z,3.63
2022-08-26T12:08:54.935Z,3.38
2022-08-26T12:12:17.710Z,3.72
2022-08-26T12:15:22.836Z,3.30
2022-08-26T12:18:31.382Z,3.35
2022-08-26T12:21:35.114Z,3.50
2022-08-26T12:24:45.521Z,3.38
2022-08-26T12:27:53.077Z,4.07
2022-08-26T12:31:02.088Z,3.30
2022-08-26T12:34:17.699Z,3.40
2022-08-26T12:37:21.185Z,3.40
2022-08-26T12:40:44.785Z,3.30
2022-08-26T12:43:47.492Z,3.13
2022-08-26T12:46:50.279Z,3.00
2022-08-26T12:50:24.060Z,4.15
2022-08-26T12:53:31.975Z,4.00
2022-08-26T12:56:41.171Z,3.60
2022-08-26T12:59:44.349Z,3.70
2022-08-26T13:02:47.483Z,3.70
2022-08-26T13:05:49.993Z,3.88
2022-08-26T13:09:18.135Z,4.05
2022-08-26T13:12:31.305Z,3.53
2022-08-26T13:15:33.914Z,3.45
2022-08-26T13:18:38.367Z,3.10
2022-08-26T13:21:44.023Z,3.90
2022-08-26T13:24:46.819Z,3.80
2022-08-26T13:27:50.141Z,4.30
2022-08-26T13:30:53.195Z,4.00
2022-08-26T13:33:56.856Z,4.30
2022-08-26T13:36:59.576Z,3.70
2022-08-26T13:40:04.998Z,4.18
2022-08-26T13:43:08.346Z,4.00
2022-08-26T13:46:11.487Z,3.97
2022-08-26T13:49:14.198Z,3.80
2022-08-26T13:52:17.933Z,4.05
2022-08-26T13:55:32.834Z,3.75
2022-08-26T13:58:35.484Z,3.75
2022-08-26T14:01:39.786Z,3.50
2022-08-26T14:04:42.327Z,3.47
2022-08-26T14:07:45.282Z,3.53
2022-08-26T14:13:55.940Z,4.22
2022-08-26T14:16:59.747Z,4.47
2022-08-26T14:20:04.862Z,4.23
2022-08-26T14:23:20.726Z,3.90
2022-08-26T14:26:29.289Z,4.20
2022-08-26T14:29:34.800Z,3.80
2022-08-26T14:32:41.403Z,4.53
2022-08-26T14:35:47.990Z,4.40
2022-08-26T14:38:51.923Z,4.70
2022-08-26T14:41:56.140Z,4.60
2022-08-26T14:45:01.858Z,4.03
2022-08-26T14:48:05.088Z,4.38
2022-08-26T14:51:07.689Z,4.43
2022-08-26T14:54:14.780Z,3.72
2022-08-26T14:57:18.477Z,3.72
2022-08-26T15:00:21.362Z,3.40
2022-08-26T15:03:23.914Z,4.13
2022-08-26T15:06:26.938Z,3.40
2022-08-26T15:09:33.422Z,3.83
2022-08-26T15:12:35.997Z,3.58
2022-08-26T15:15:38.936Z,3.13
2022-08-26T15:18:41.641Z,3.08
2022-08-26T15:21:45.766Z,3.33
2022-08-26T15:24:53.615Z,3.30
2022-08-26T15:27:58.765Z,3.63
2022-08-26T15:31:01.510Z,3.45
2022-08-26T15:34:07.802Z,3.60
2022-08-26T15:37:10.470Z,3.50
2022-08-26T15:40:13.145Z,3.03
2022-08-26T15:43:28.434Z,3.63
2022-08-26T15:46:32.201Z,3.03
2022-08-26T15:49:35.915Z,3.33
2022-08-26T15:52:39.714Z,3.47
2022-08-26T15:55:42.233Z,3.50
2022-08-26T15:58:45.177Z,3.22
2022-08-26T16:01:48.615Z,3.33
2022-08-26T16:04:51.624Z,3.50
2022-08-26T16:07:54.270Z,3.60
2022-08-26T16:10:56.788Z,3.10
2022-08-26T16:13:59.326Z,3.40
2022-08-26T16:17:01.939Z,3.38
2022-08-26T16:20:05.196Z,3.38
2022-08-26T16:23:08.233Z,2.83
2022-08-26T16:26:19.761Z,3.28
2022-08-26T16:29:22.241Z,2.95
2022-08-26T16:32:28.243Z,3.42
2022-08-26T16:35:33.579Z,3.80
2022-08-26T16:38:37.754Z,3.13
2022-08-26T16:41:40.843Z,3.20
2022-08-26T16:44:46.447Z,3.40
2022-08-26T16:47:50.344Z,3.20
2022-08-26T16:50:55.709Z,3.78
2022-08-26T16:54:02.875Z,3.43
2022-08-26T16:57:06.402Z,3.20
2022-08-26T17:00:30.078Z,3.20
2022-08-26T17:03:33.397Z,3.38
2022-08-26T17:06:36.200Z,3.70
2022-08-26T17:09:40.340Z,3.57
2022-08-26T17:12:44.094Z,3.28
2022-08-26T17:15:54.223Z,3.58
2022-08-26T17:19:01.984Z,3.20
2022-08-26T17:22:08.673Z,3.40
2022-08-26T17:25:21.334Z,3.00
2022-08-26T17:28:24.874Z,3.40
2022-08-26T17:31:27.486Z,3.17
2022-08-26T17:34:30.060Z,3.67
2022-08-26T17:37:32.765Z,3.35
2022-08-26T17:40:35.470Z,3.07
2022-08-26T17:43:39.145Z,2.83
2022-08-26T17:46:41.642Z,3.30
2022-08-26T17:49:44.168Z,3.42
2022-08-26T17:52:46.888Z,3.50
2022-08-26T17:55:49.954Z,3.50
2022-08-26T17:58:57.958Z,3.25
2022-08-26T18:02:06.351Z,3.70
2022-08-26T18:05:11.942Z,3.35
2022-08-26T18:08:14.535Z,3.40
2022-08-26T18:11:21.004Z,3.17
2022-08-26T18:14:23.969Z,3.25
2022-08-26T18:17:26.669Z,3.03
2022-08-26T18:20:29.251Z,3.42
2022-08-26T18:23:31.753Z,3.40
2022-08-26T18:26:37.723Z,3.20
2022-08-26T18:29:45.259Z,3.45
2022-08-26T18:32:49.255Z,3.63
2022-08-26T18:35:52.772Z,3.42
2022-08-26T18:38:56.183Z,3.40
2022-08-26T18:41:58.960Z,3.60
2022-08-26T18:45:02.447Z,3.22
2022-08-26T18:48:06.054Z,3.20
2022-08-26T18:51:15.309Z,3.47
2022-08-26T18:57:26.729Z,3.37
2022-08-26T19:00:31.511Z,3.35
2022-08-26T19:03:34.535Z,3.20
2022-08-26T19:06:39.524Z,3.10
2022-08-26T19:09:42.274Z,3.40
2022-08-26T19:12:45.505Z,3.00
2022-08-26T19:15:54.534Z,3.25
2022-08-26T19:18:59.305Z,3.55
2022-08-26T19:22:02.672Z,3.40
2022-08-26T19:25:05.768Z,3.50
2022-08-26T19:28:08.524Z,3.30
2022-08-26T19:31:12.469Z,3.08
2022-08-26T19:34:18.321Z,3.10
2022-08-26T19:37:24.336Z,3.40
2022-08-26T19:40:28.176Z,3.30
2022-08-26T19:43:30.807Z,2.97
2022-08-26T19:46:36.475Z,3.30
2022-08-26T19:49:39.609Z,3.50
2022-08-26T19:52:43.915Z,3.00
2022-08-26T19:55:47.154Z,3.30
2022-08-26T19:58:51.065Z,3.13
2022-08-26T20:02:01.234Z,3.25
2022-08-26T20:05:06.027Z,3.47
2022-08-26T20:08:08.853Z,2.90
2022-08-26T20:11:24.910Z,3.05
2022-08-26T20:14:29.127Z,3.10
2022-08-26T20:17:33.143Z,3.40
2022-08-26T20:20:55.051Z,3.60
2022-08-26T20:24:01.112Z,3.38
2022-08-26T20:27:07.720Z,3.13
2022-08-26T20:30:11.868Z,3.40
2022-08-26T20:33:14.588Z,3.00
2022-08-26T20:36:17.491Z,3.38
2022-08-26T20:39:21.393Z,3.30
2022-08-26T20:42:24.123Z,3.13
2022-08-26T20:45:26.680Z,3.00
2022-08-26T20:48:31.541Z,3.05
2022-08-26T20:51:37.500Z,3.20
2022-08-26T20:54:40.581Z,2.90
2022-08-26T20:57:43.467Z,3.22
2022-08-26T21:00:46.056Z,3.37
2022-08-26T21:03:51.300Z,3.20
2022-08-26T21:06:54.843Z,3.38
2022-08-26T21:09:58.191Z,3.22
2022-08-26T21:13:02.068Z,3.20
2022-08-26T21:16:05.075Z,3.40
2022-08-26T21:19:10.726Z,2.97
2022-08-26T21:22:14.124Z,3.60
2022-08-26T21:25:17.613Z,3.33
2022-08-26T21:28:20.253Z,3.53
2022-08-26T21:31:25.320Z,3.10
2022-08-26T21:34:27.877Z,3.10
2022-08-26T21:37:30.476Z,3.67
2022-08-26T21:40:33.969Z,3.13
2022-08-26T21:43:37.836Z,3.15
2022-08-26T21:46:41.226Z,3.40
2022-08-26T21:49:44.217Z,3.15
2022-08-26T21:52:47.441Z,3.30
2022-08-26T21:55:50.111Z,3.30
2022-08-26T21:58:55.103Z,3.25
2022-08-26T22:01:58.257Z,3.00
2022-08-26T22:05:01.280Z,3.45
2022-08-26T22:08:04.800Z,3.15
2022-08-26T22:11:07.459Z,3.10
2022-08-26T22:14:11.147Z,3.53
2022-08-26T22:17:13.902Z,3.27
2022-08-26T22:20:16.946Z,3.28
2022-08-26T22:23:20.945Z,3.50
2022-08-26T22:26:26.027Z,3.28
2022-08-26T22:29:28.651Z,3.40
2022-08-26T22:32:31.196Z,3.00
2022-08-26T22:35:40.677Z,3.03
2022-08-26T22:38:43.872Z,3.45
2022-08-26T22:41:48.650Z,3.50
2022-08-26T22:44:51.360Z,3.30
2022-08-26T22:47:53.885Z,3.30
2022-08-26T22:51:00.166Z,3.40
2022-08-26T22:54:02.974Z,3.80
2022-08-26T22:57:05.721Z,3.30
2022-08-26T23:00:12.256Z,3.30
2022-08-26T23:03:16.797Z,3.47
2022-08-26T23:06:19.354Z,3.30
2022-08-26T23:09:22.229Z,3.10
2022-08-26T23:12:25.165Z,2.90
2022-08-26T23:15:27.828Z,3.22
2022-08-26T23:18:30.454Z,2.90
2022-08-26T23:21:33.137Z,3.10
2022-08-26T23:24:35.730Z,3.22
2022-08-26T23:27:41.871Z,3.30
2022-08-26T23:30:44.513Z,3.45
2022-08-26T23:34:05.371Z,3.17
2022-08-26T23:37:09.340Z,3.03
2022-08-26T23:40:15.744Z,3.50
2022-08-26T23:43:18.388Z,3.17
2022-08-26T23:46:21.027Z,3.40
2022-08-26T23:49:24.199Z,3.30
2022-08-26T23:52:46.437Z,3.10
2022-08-26T23:55:52.799Z,3.40
2022-08-26T23:58:55.509Z,3.30
